createdAt,value
2023-03-29T00:00:09.476Z,4.15
2023-03-29T00:02:11.254Z,4.16
2023-03-29T00:04:14.954Z,4.15
2023-03-29T00:06:16.565Z,4.15
2023-03-29T00:08:18.132Z,4.15
2023-03-29T00:10:22.183Z,4.14
2023-03-29T00:12:24.005Z,4.14
2023-03-29T00:14:25.793Z,4.13
2023-03-29T00:16:27.464Z,4.14
2023-03-29T00:18:29.143Z,4.13
2023-03-29T00:20:32.203Z,4.12
2023-03-29T00:22:33.810Z,4.12
2023-03-29T00:24:35.535Z,4.12
2023-03-29T00:26:37.318Z,4.11
2023-03-29T00:28:38.929Z,4.12
2023-03-29T00:30:41.184Z,4.12
2023-03-29T00:32:44.503Z,4.12
2023-03-29T00:34:48.574Z,4.12
2023-03-29T00:36:51.606Z,4.12
2023-03-29T00:38:53.412Z,4.11
2023-03-29T00:40:55.198Z,4.12
2023-03-29T00:42:57.046Z,4.12
2023-03-29T00:45:05.260Z,4.11
2023-03-29T00:47:07.313Z,4.10
2023-03-29T00:49:12.417Z,4.10
2023-03-29T00:51:17.345Z,4.09
2023-03-29T00:53:26.065Z,4.10
2023-03-29T00:55:31.967Z,4.10
2023-03-29T00:57:34.575Z,4.08
2023-03-29T00:59:38.875Z,4.06
2023-03-29T01:01:46.660Z,4.07
2023-03-29T01:03:54.629Z,4.07
2023-03-29T01:06:03.118Z,4.06
2023-03-29T01:08:08.452Z,4.04
2023-03-29T01:10:16.264Z,4.05
2023-03-29T01:12:24.259Z,4.04
2023-03-29T01:14:33.584Z,4.04
2023-03-29T01:16:36.255Z,4.02
2023-03-29T01:18:39.340Z,4.01
2023-03-29T01:21:00.332Z,4.02
2023-03-29T01:23:22.790Z,4.01
2023-03-29T01:25:32.962Z,3.99
2023-03-29T01:27:47.399Z,3.97
2023-03-29T01:29:54.002Z,3.95
2023-03-29T01:32:00.355Z,3.93
2023-03-29T01:34:10.481Z,3.93
2023-03-29T01:36:16.636Z,3.92
2023-03-29T01:38:23.661Z,3.91
2023-03-29T01:40:25.707Z,3.91
2023-03-29T01:42:39.148Z,3.90
2023-03-29T01:44:49.781Z,3.89
2023-03-29T01:46:55.458Z,3.88
2023-03-29T01:49:00.007Z,3.87
2023-03-29T01:51:08.696Z,3.86
2023-03-29T01:53:15.597Z,3.85
2023-03-29T01:55:23.970Z,3.84
2023-03-29T01:57:27.258Z,3.83
2023-03-29T01:59:33.386Z,3.82
2023-03-29T02:01:41.770Z,3.83
2023-03-29T02:03:48.093Z,3.81
2023-03-29T02:05:51.270Z,3.80
2023-03-29T02:07:54.242Z,3.80
2023-03-29T02:09:56.288Z,3.80
2023-03-29T02:12:02.124Z,3.80
2023-03-29T02:14:04.062Z,3.80
2023-03-29T02:16:09.776Z,3.81
2023-03-29T02:18:15.764Z,3.81
2023-03-29T02:20:20.526Z,3.80
2023-03-29T02:22:27.612Z,3.80
2023-03-29T02:24:31.670Z,3.78
2023-03-29T02:26:33.468Z,3.79
2023-03-29T02:28:36.138Z,3.79
2023-03-29T02:30:44.509Z,3.79
2023-03-29T02:32:57.823Z,3.80
2023-03-29T02:35:07.082Z,3.81
2023-03-29T02:37:14.263Z,3.80
2023-03-29T02:39:17.594Z,3.81
2023-03-29T02:41:20.513Z,3.81
2023-03-29T02:43:25.853Z,3.81
2023-03-29T02:45:30.345Z,3.82
2023-03-29T02:47:37.310Z,3.82
2023-03-29T02:49:39.593Z,3.82
2023-03-29T02:51:44.010Z,3.82
2023-03-29T02:53:51.282Z,3.86
2023-03-29T02:55:53.753Z,3.84
2023-03-29T02:57:55.508Z,3.86
2023-03-29T02:59:58.935Z,3.86
2023-03-29T03:02:02.881Z,3.84
2023-03-29T03:04:08.080Z,3.88
2023-03-29T03:06:10.158Z,3.88
2023-03-29T03:08:14.026Z,3.88
2023-03-29T03:10:16.116Z,3.89
2023-03-29T03:12:17.955Z,3.90
2023-03-29T03:14:20.349Z,3.89
2023-03-29T03:16:22.843Z,3.91
2023-03-29T03:18:24.880Z,3.90
2023-03-29T03:20:26.612Z,3.92
2023-03-29T03:22:28.822Z,3.91
2023-03-29T03:24:31.853Z,3.92
2023-03-29T03:26:34.443Z,3.90
2023-03-29T03:28:36.406Z,3.91
2023-03-29T03:30:37.977Z,3.90
2023-03-29T03:32:39.633Z,3.92
2023-03-29T03:34:41.337Z,3.90
2023-03-29T03:36:43.016Z,3.91
2023-03-29T03:38:44.961Z,3.92
2023-03-29T03:40:56.787Z,3.95
2023-03-29T03:42:58.792Z,3.93
2023-03-29T03:45:00.602Z,3.92
2023-03-29T03:47:02.232Z,3.92
2023-03-29T03:49:04.136Z,3.95
2023-03-29T03:51:06.499Z,3.95
2023-03-29T03:53:08.091Z,3.94
2023-03-29T03:55:10.134Z,3.97
2023-03-29T03:57:13.678Z,3.95
2023-03-29T03:59:15.852Z,3.98
2023-03-29T04:01:17.770Z,3.99
2023-03-29T04:03:19.609Z,3.98
2023-03-29T04:05:21.466Z,4.00
2023-03-29T04:07:23.118Z,4.02
2023-03-29T04:09:25.186Z,4.03
2023-03-29T04:11:27.030Z,4.05
2023-03-29T04:13:30.342Z,4.05
2023-03-29T04:15:33.728Z,4.06
2023-03-29T04:17:35.693Z,4.06
2023-03-29T04:19:37.496Z,4.04
2023-03-29T04:21:39.530Z,4.07
2023-03-29T04:23:41.549Z,4.08
2023-03-29T04:25:43.617Z,4.07
2023-03-29T04:27:45.875Z,4.11
2023-03-29T04:29:49.330Z,4.10
2023-03-29T04:31:51.161Z,4.13
2023-03-29T04:33:53.292Z,4.11
2023-03-29T04:35:56.353Z,4.14
2023-03-29T04:37:58.852Z,4.14
2023-03-29T04:40:04.417Z,4.14
2023-03-29T04:42:06.442Z,4.14
2023-03-29T04:44:10.600Z,4.12
2023-03-29T04:46:18.309Z,4.16
2023-03-29T04:50:48.565Z,4.17
2023-03-29T04:52:52.095Z,4.16
2023-03-29T04:55:00.699Z,4.17
2023-03-29T04:57:08.776Z,4.17
2023-03-29T04:59:15.780Z,4.16
2023-03-29T05:01:26.002Z,4.21
2023-03-29T05:03:32.706Z,4.21
2023-03-29T05:05:40.189Z,4.19
2023-03-29T05:07:59.066Z,4.18
2023-03-29T05:10:10.531Z,4.23
2023-03-29T05:12:20.400Z,4.20
2023-03-29T05:17:04.558Z,4.22
2023-03-29T05:19:06.685Z,4.22
2023-03-29T05:21:08.443Z,4.24
2023-03-29T05:23:10.006Z,4.26
2023-03-29T05:25:11.706Z,4.26
2023-03-29T05:27:13.553Z,4.27
2023-03-29T05:29:15.412Z,4.27
2023-03-29T05:31:17.321Z,4.29
2023-03-29T05:33:20.711Z,4.31
2023-03-29T05:35:22.469Z,4.32
2023-03-29T05:37:24.199Z,4.32
2023-03-29T05:39:25.992Z,4.33
2023-03-29T05:41:27.877Z,4.35
2023-03-29T05:43:29.721Z,4.36
2023-03-29T05:45:31.443Z,4.38
2023-03-29T05:47:33.427Z,4.39
2023-03-29T05:49:36.564Z,4.41
2023-03-29T05:51:38.388Z,4.41
2023-03-29T05:53:40.338Z,4.45
2023-03-29T05:55:42.375Z,4.46
2023-03-29T05:57:44.527Z,4.49
2023-03-29T05:59:46.381Z,4.50
2023-03-29T06:01:48.167Z,4.53
2023-03-29T06:03:50.386Z,4.52
2023-03-29T06:05:58.818Z,4.54
2023-03-29T06:08:00.876Z,4.58
2023-03-29T06:10:02.452Z,4.58
2023-03-29T06:12:04.268Z,4.61
2023-03-29T06:14:05.913Z,4.62
2023-03-29T06:16:08.615Z,4.66
2023-03-29T06:18:10.694Z,4.67
2023-03-29T06:20:12.846Z,4.70
2023-03-29T06:22:16.021Z,4.72
2023-03-29T06:24:17.763Z,4.74
2023-03-29T06:26:19.806Z,4.74
2023-03-29T06:28:22.485Z,4.78
2023-03-29T06:30:24.487Z,4.81
2023-03-29T06:32:26.369Z,4.81
2023-03-29T06:34:28.522Z,4.85
2023-03-29T06:36:30.234Z,4.86
2023-03-29T06:38:33.298Z,4.89
2023-03-29T06:40:35.620Z,4.93
2023-03-29T06:42:37.331Z,4.94
2023-03-29T06:44:39.095Z,4.97
2023-03-29T06:46:41.000Z,4.99
2023-03-29T06:48:42.686Z,5.01
2023-03-29T06:50:44.342Z,5.04
2023-03-29T06:52:46.728Z,5.06
2023-03-29T06:54:50.927Z,5.08
2023-03-29T06:56:53.108Z,5.11
2023-03-29T06:58:55.297Z,5.12
2023-03-29T07:03:05.636Z,5.18
2023-03-29T07:05:07.772Z,5.20
2023-03-29T07:07:09.593Z,5.23
2023-03-29T07:09:11.151Z,5.25
2023-03-29T07:11:16.006Z,5.32
2023-03-29T07:13:17.592Z,5.35
2023-03-29T07:15:19.733Z,5.39
2023-03-29T07:17:21.384Z,5.43
2023-03-29T07:19:23.951Z,5.46
2023-03-29T07:21:25.790Z,5.49
2023-03-29T07:23:27.875Z,5.52
2023-03-29T07:25:29.520Z,5.57
2023-03-29T07:27:33.231Z,5.61
2023-03-29T07:29:35.262Z,5.64
2023-03-29T07:31:37.030Z,5.67
2023-03-29T07:33:39.380Z,5.70
2023-03-29T07:35:41.567Z,5.75
2023-03-29T07:37:44.736Z,5.77
2023-03-29T07:39:46.405Z,5.80
2023-03-29T07:41:48.038Z,5.84
2023-03-29T07:43:51.639Z,5.88
2023-03-29T07:45:53.595Z,5.92
2023-03-29T07:47:57.486Z,5.96
2023-03-29T07:49:59.285Z,6.00
2023-03-29T07:52:01.473Z,6.04
2023-03-29T07:54:03.350Z,6.07
2023-03-29T07:56:05.645Z,6.10
2023-03-29T07:58:07.183Z,6.15
2023-03-29T08:00:12.908Z,6.19
2023-03-29T08:02:14.476Z,6.25
2023-03-29T08:04:16.407Z,6.29
2023-03-29T08:06:18.087Z,6.34
2023-03-29T08:08:19.650Z,6.37
2023-03-29T08:10:22.811Z,6.42
2023-03-29T08:12:25.086Z,6.45
2023-03-29T08:14:26.752Z,6.50
2023-03-29T08:16:30.092Z,6.55
2023-03-29T08:18:34.583Z,6.59
2023-03-29T08:20:36.822Z,6.65
2023-03-29T08:22:38.683Z,6.70
2023-03-29T08:24:40.538Z,6.75
2023-03-29T08:26:42.469Z,6.79
2023-03-29T08:28:47.275Z,6.88
2023-03-29T08:30:48.889Z,6.94
2023-03-29T08:32:54.464Z,7.01
2023-03-29T08:34:57.210Z,7.07
2023-03-29T08:36:59.246Z,7.14
2023-03-29T08:39:01.273Z,7.23
2023-03-29T08:41:22.659Z,7.32
2023-03-29T08:43:59.662Z,7.41
2023-03-29T08:46:12.289Z,7.49
2023-03-29T08:48:25.755Z,7.57
2023-03-29T08:50:34.105Z,7.64
2023-03-29T08:52:38.622Z,7.69
2023-03-29T08:54:43.493Z,7.75
2023-03-29T08:56:46.976Z,7.79
2023-03-29T08:58:52.118Z,7.88
2023-03-29T09:00:57.252Z,7.92
2023-03-29T09:02:59.186Z,7.99
2023-03-29T09:05:08.616Z,8.09
2023-03-29T09:07:11.708Z,8.14
2023-03-29T09:09:17.337Z,8.25
2023-03-29T09:11:47.766Z,8.37
2023-03-29T09:13:57.848Z,8.46
2023-03-29T09:16:07.549Z,8.56
2023-03-29T09:18:17.551Z,8.65
2023-03-29T09:20:40.979Z,8.80
2023-03-29T09:22:52.954Z,8.91
2023-03-29T09:25:07.748Z,9.02
2023-03-29T09:27:16.904Z,9.12
2023-03-29T09:29:48.190Z,9.23
2023-03-29T09:31:50.308Z,9.31
2023-03-29T09:34:05.103Z,9.41
2023-03-29T09:36:12.037Z,9.48
2023-03-29T09:38:16.358Z,9.54
2023-03-29T09:40:23.099Z,9.63
2023-03-29T09:42:29.266Z,9.75
2023-03-29T09:44:43.193Z,9.84
2023-03-29T09:46:53.647Z,9.93
2023-03-29T09:48:57.051Z,10.01
2023-03-29T09:51:02.151Z,10.10
2023-03-29T09:53:05.802Z,10.16
2023-03-29T09:55:13.529Z,10.21
2023-03-29T09:57:20.159Z,10.30
2023-03-29T09:59:24.327Z,10.34
2023-03-29T10:01:36.286Z,10.44
2023-03-29T10:03:43.015Z,10.50
2023-03-29T10:05:46.505Z,10.59
2023-03-29T10:07:51.693Z,10.64
2023-03-29T10:09:55.907Z,10.72
2023-03-29T10:12:00.681Z,10.81
2023-03-29T10:14:05.603Z,10.89
2023-03-29T10:16:09.824Z,10.99
2023-03-29T10:18:13.479Z,11.08
2023-03-29T10:20:19.160Z,11.15
2023-03-29T10:22:23.768Z,11.24
2023-03-29T10:24:26.709Z,11.31
2023-03-29T10:26:32.119Z,11.40
2023-03-29T10:28:36.740Z,11.48
2023-03-29T10:30:39.428Z,11.60
2023-03-29T10:32:41.091Z,11.67
2023-03-29T10:34:45.273Z,11.77
2023-03-29T10:36:57.394Z,11.86
2023-03-29T10:39:03.571Z,11.93
2023-03-29T10:41:11.023Z,12.00
2023-03-29T10:43:20.781Z,12.07
2023-03-29T10:45:27.332Z,12.14
2023-03-29T10:47:32.045Z,12.20
2023-03-29T10:49:40.458Z,12.25
2023-03-29T10:51:45.839Z,12.28
2023-03-29T10:53:47.424Z,12.34
2023-03-29T10:56:00.733Z,12.39
2023-03-29T10:58:18.759Z,12.46
2023-03-29T11:00:32.093Z,12.56
2023-03-29T11:03:08.694Z,12.66
2023-03-29T11:05:22.058Z,12.75
2023-03-29T11:07:29.677Z,12.86
2023-03-29T11:09:45.732Z,12.95
2023-03-29T11:12:15.089Z,13.04
2023-03-29T11:14:29.856Z,13.13
2023-03-29T11:16:41.856Z,13.22
2023-03-29T11:19:10.921Z,13.34
2023-03-29T11:21:24.743Z,13.49
2023-03-29T11:23:40.074Z,13.57
2023-03-29T11:25:53.734Z,13.61
2023-03-29T11:28:02.545Z,13.69
2023-03-29T11:30:10.570Z,13.72
2023-03-29T11:32:22.089Z,13.77
2023-03-29T11:34:34.392Z,13.77
2023-03-29T11:36:48.667Z,13.84
2023-03-29T11:39:02.594Z,13.88
2023-03-29T11:41:13.817Z,13.94
2023-03-29T11:43:22.830Z,14.03
2023-03-29T11:45:31.783Z,14.13
2023-03-29T11:47:39.649Z,14.19
2023-03-29T11:49:45.572Z,14.29
2023-03-29T11:51:53.886Z,14.36
2023-03-29T11:54:03.391Z,14.47
2023-03-29T11:56:10.598Z,14.55
2023-03-29T11:58:19.828Z,14.63
2023-03-29T12:00:25.464Z,14.70
2023-03-29T12:02:33.564Z,14.82
2023-03-29T12:04:42.677Z,14.90
2023-03-29T12:06:53.029Z,15.01
2023-03-29T12:09:00.430Z,15.03
2023-03-29T12:11:07.216Z,15.01
2023-03-29T12:13:16.632Z,14.96
2023-03-29T12:15:21.904Z,14.91
2023-03-29T12:17:30.640Z,14.97
2023-03-29T12:19:40.309Z,15.03
2023-03-29T12:21:47.248Z,15.10
2023-03-29T12:23:50.135Z,15.19
2023-03-29T12:25:57.259Z,15.24
2023-03-29T12:28:19.488Z,15.33
2023-03-29T12:30:45.231Z,15.41
2023-03-29T12:33:02.056Z,15.48
2023-03-29T12:35:21.541Z,15.50
2023-03-29T12:37:34.644Z,15.57
2023-03-29T12:39:37.426Z,15.59
2023-03-29T12:41:39.276Z,15.56
2023-03-29T12:43:41.775Z,15.52
2023-03-29T12:45:45.217Z,15.52
2023-03-29T12:47:49.349Z,15.57
2023-03-29T12:49:54.552Z,15.58
2023-03-29T12:51:58.947Z,15.61
2023-03-29T12:54:06.361Z,15.69
2023-03-29T12:56:15.059Z,15.62
2023-03-29T12:58:40.467Z,15.57
2023-03-29T13:00:44.951Z,15.59
2023-03-29T13:03:00.226Z,15.57
2023-03-29T13:05:02.346Z,15.50
2023-03-29T13:07:04.549Z,15.44
2023-03-29T13:09:23.253Z,15.40
2023-03-29T13:11:28.085Z,15.35
2023-03-29T13:13:33.662Z,15.32
2023-03-29T13:15:37.178Z,15.27
2023-03-29T13:17:50.804Z,15.23
2023-03-29T13:20:07.767Z,15.20
2023-03-29T13:22:23.727Z,15.13
2023-03-29T13:24:51.690Z,15.05
2023-03-29T13:27:00.686Z,14.95
2023-03-29T13:29:41.514Z,14.90
2023-03-29T13:31:49.733Z,14.83
2023-03-29T13:34:02.734Z,14.78
2023-03-29T13:36:11.622Z,14.75
2023-03-29T13:38:19.659Z,14.75
2023-03-29T13:40:32.268Z,14.74
2023-03-29T13:42:40.191Z,14.73
2023-03-29T13:44:44.204Z,14.69
2023-03-29T13:46:48.067Z,14.67
2023-03-29T13:48:59.647Z,14.66
2023-03-29T13:51:03.434Z,14.58
2023-03-29T13:53:13.767Z,14.55
2023-03-29T13:55:21.402Z,14.51
2023-03-29T13:57:30.967Z,14.48
2023-03-29T13:59:41.619Z,14.43
2023-03-29T14:01:48.521Z,14.38
2023-03-29T14:03:51.145Z,14.37
2023-03-29T14:05:59.058Z,14.35
2023-03-29T14:08:07.759Z,14.31
2023-03-29T14:10:13.750Z,14.21
2023-03-29T14:12:15.746Z,14.18
2023-03-29T14:14:22.571Z,14.12
2023-03-29T14:16:27.908Z,14.08
2023-03-29T14:18:34.577Z,14.04
2023-03-29T14:20:36.787Z,13.98
2023-03-29T14:22:38.402Z,13.98
2023-03-29T14:24:45.243Z,13.91
2023-03-29T14:26:47.484Z,13.88
2023-03-29T14:28:51.532Z,13.86
2023-03-29T14:30:55.718Z,13.81
2023-03-29T14:32:57.413Z,13.75
2023-03-29T14:35:00.480Z,13.73
2023-03-29T14:37:02.339Z,13.70
2023-03-29T14:39:06.105Z,13.65
2023-03-29T14:41:08.840Z,13.59
2023-03-29T14:43:17.814Z,13.57
2023-03-29T14:45:22.145Z,13.55
2023-03-29T14:47:28.553Z,13.52
2023-03-29T14:49:31.472Z,13.48
2023-03-29T14:51:33.734Z,13.45
2023-03-29T14:53:36.807Z,13.41
2023-03-29T14:55:38.672Z,13.40
2023-03-29T14:57:42.212Z,13.34
2023-03-29T14:59:49.022Z,13.32
2023-03-29T15:01:50.909Z,13.25
2023-03-29T15:03:56.441Z,13.21
2023-03-29T15:06:02.184Z,13.16
2023-03-29T15:08:05.676Z,13.11
2023-03-29T15:10:08.729Z,13.06
2023-03-29T15:12:15.847Z,13.04
2023-03-29T15:14:20.155Z,13.01
2023-03-29T15:16:22.391Z,12.98
2023-03-29T15:18:29.346Z,12.97
2023-03-29T15:20:37.548Z,12.94
2023-03-29T15:22:51.774Z,12.90
2023-03-29T15:24:53.791Z,12.90
2023-03-29T15:27:00.927Z,12.88
2023-03-29T15:29:06.820Z,12.87
2023-03-29T15:31:12.685Z,12.83
2023-03-29T15:33:16.169Z,12.83
2023-03-29T15:35:23.169Z,12.82
2023-03-29T15:37:27.489Z,12.80
2023-03-29T15:39:29.746Z,12.77
2023-03-29T15:41:31.714Z,12.76
2023-03-29T15:43:34.087Z,12.72
2023-03-29T15:45:35.568Z,12.71
2023-03-29T15:47:37.229Z,12.68
2023-03-29T15:49:39.065Z,12.67
2023-03-29T15:51:41.494Z,12.67
2023-03-29T15:53:44.615Z,12.64
2023-03-29T15:55:49.004Z,12.64
2023-03-29T15:57:54.191Z,12.62
2023-03-29T15:59:56.441Z,12.60
2023-03-29T16:01:58.914Z,12.59
2023-03-29T16:04:00.642Z,12.58
2023-03-29T16:06:02.476Z,12.56
2023-03-29T16:08:04.422Z,12.53
2023-03-29T16:10:08.748Z,12.52
2023-03-29T16:12:10.834Z,12.49
2023-03-29T16:14:19.014Z,12.47
2023-03-29T16:16:20.775Z,12.46
2023-03-29T16:18:22.436Z,12.45
2023-03-29T16:20:23.994Z,12.44
2023-03-29T16:22:25.811Z,12.43
2023-03-29T16:24:29.987Z,12.42
2023-03-29T16:26:33.448Z,12.42
2023-03-29T16:28:35.027Z,12.41
2023-03-29T16:30:37.829Z,12.38
2023-03-29T16:32:39.410Z,12.39
2023-03-29T16:34:40.937Z,12.38
2023-03-29T16:36:43.122Z,12.36
2023-03-29T16:38:44.795Z,12.35
2023-03-29T16:40:46.848Z,12.33
2023-03-29T16:42:49.950Z,12.32
2023-03-29T16:44:51.614Z,12.31
2023-03-29T16:46:53.433Z,12.28
2023-03-29T16:48:54.995Z,12.26
2023-03-29T16:50:56.564Z,12.26
2023-03-29T16:52:58.146Z,12.25
2023-03-29T16:54:59.695Z,12.23
2023-03-29T16:57:01.351Z,12.20
2023-03-29T16:59:04.235Z,12.21
2023-03-29T17:01:09.960Z,12.20
2023-03-29T17:03:11.852Z,12.15
2023-03-29T17:05:13.445Z,12.14
2023-03-29T17:07:15.280Z,12.11
2023-03-29T17:09:17.030Z,12.08
2023-03-29T17:11:18.631Z,12.08
2023-03-29T17:13:20.257Z,12.07
2023-03-29T17:15:23.220Z,12.03
2023-03-29T17:17:24.979Z,12.03
2023-03-29T17:19:26.803Z,12.02
2023-03-29T17:21:28.580Z,12.02
2023-03-29T17:23:30.176Z,12.01
2023-03-29T17:25:31.736Z,11.99
2023-03-29T17:27:33.320Z,11.99
2023-03-29T17:29:34.988Z,11.95
2023-03-29T17:31:38.271Z,11.94
2023-03-29T17:33:40.026Z,11.94
2023-03-29T17:35:42.175Z,11.93
2023-03-29T17:37:44.152Z,11.90
2023-03-29T17:39:45.969Z,11.88
2023-03-29T17:41:47.589Z,11.88
2023-03-29T17:43:49.177Z,11.87
2023-03-29T17:45:51.611Z,11.85
2023-03-29T17:47:54.643Z,11.83
2023-03-29T17:49:56.560Z,11.82
2023-03-29T17:51:58.142Z,11.79
2023-03-29T17:53:59.757Z,11.79
2023-03-29T17:56:01.465Z,11.76
2023-03-29T17:58:03.422Z,11.74
2023-03-29T18:00:08.026Z,11.71
2023-03-29T18:02:16.065Z,11.71
2023-03-29T18:04:19.056Z,11.69
2023-03-29T18:06:20.689Z,11.68
2023-03-29T18:08:22.239Z,11.66
2023-03-29T18:10:23.962Z,11.66
2023-03-29T18:12:26.241Z,11.64
2023-03-29T18:14:27.948Z,11.63
2023-03-29T18:16:29.484Z,11.62
2023-03-29T18:18:31.093Z,11.60
2023-03-29T18:20:34.040Z,11.60
2023-03-29T18:22:35.538Z,11.59
2023-03-29T18:24:37.084Z,11.58
2023-03-29T18:26:38.620Z,11.56
2023-03-29T18:28:40.950Z,11.53
2023-03-29T18:30:42.590Z,11.52
2023-03-29T18:32:44.230Z,11.50
2023-03-29T18:34:45.721Z,11.48
2023-03-29T18:36:48.599Z,11.45
2023-03-29T18:38:50.131Z,11.45
2023-03-29T18:40:52.022Z,11.42
2023-03-29T18:42:53.708Z,11.42
2023-03-29T18:44:55.185Z,11.38
2023-03-29T18:46:56.656Z,11.39
2023-03-29T18:48:58.684Z,11.36
2023-03-29T18:51:00.230Z,11.34
2023-03-29T18:53:03.913Z,11.33
2023-03-29T18:55:06.750Z,11.31
2023-03-29T18:57:08.451Z,11.29
2023-03-29T18:59:10.504Z,11.27
2023-03-29T19:01:12.257Z,11.24
2023-03-29T19:03:14.146Z,11.22
2023-03-29T19:05:16.221Z,11.21
2023-03-29T19:07:17.780Z,11.20
2023-03-29T19:09:20.700Z,11.19
2023-03-29T19:11:22.484Z,11.17
2023-03-29T19:13:24.244Z,11.17
2023-03-29T19:15:26.238Z,11.14
2023-03-29T19:17:27.868Z,11.14
2023-03-29T19:19:29.432Z,11.12
2023-03-29T19:21:31.066Z,11.09
2023-03-29T19:23:32.714Z,11.08
2023-03-29T19:25:35.862Z,11.07
2023-03-29T19:27:37.812Z,11.06
2023-03-29T19:29:39.599Z,11.05
2023-03-29T19:31:41.330Z,11.02
2023-03-29T19:33:42.940Z,11.01
2023-03-29T19:35:44.625Z,10.98
2023-03-29T19:37:46.169Z,10.96
2023-03-29T19:39:47.922Z,10.95
2023-03-29T19:41:50.851Z,10.94
2023-03-29T19:43:52.570Z,10.90
2023-03-29T19:45:54.044Z,10.88
2023-03-29T19:47:56.237Z,10.86
2023-03-29T19:49:57.916Z,10.84
2023-03-29T19:51:59.518Z,10.81
2023-03-29T19:54:01.301Z,10.80
2023-03-29T19:56:03.089Z,10.78
2023-03-29T19:58:06.801Z,10.76
2023-03-29T20:00:09.595Z,10.74
2023-03-29T20:02:11.449Z,10.73
2023-03-29T20:04:13.558Z,10.70
2023-03-29T20:06:15.434Z,10.67
2023-03-29T20:08:16.962Z,10.63
2023-03-29T20:10:18.880Z,10.62
2023-03-29T20:12:20.420Z,10.60
2023-03-29T20:14:23.447Z,10.58
2023-03-29T20:16:25.374Z,10.56
2023-03-29T20:18:27.171Z,10.54
2023-03-29T20:20:29.119Z,10.51
2023-03-29T20:22:30.671Z,10.51
2023-03-29T20:24:32.200Z,10.52
2023-03-29T20:26:34.046Z,10.51
2023-03-29T20:28:35.670Z,10.49
2023-03-29T20:30:39.323Z,10.48
2023-03-29T20:32:40.924Z,10.47
2023-03-29T20:34:42.573Z,10.45
2023-03-29T20:36:44.250Z,10.44
2023-03-29T20:38:45.819Z,10.44
2023-03-29T20:40:47.581Z,10.43
2023-03-29T20:42:49.091Z,10.42
2023-03-29T20:44:50.892Z,10.42
2023-03-29T20:46:54.786Z,10.41
2023-03-29T20:48:56.351Z,10.40
2023-03-29T20:50:57.957Z,10.40
2023-03-29T20:52:59.723Z,10.39
2023-03-29T20:55:01.351Z,10.39
2023-03-29T20:57:03.072Z,10.38
2023-03-29T20:59:04.902Z,10.38
2023-03-29T21:01:06.777Z,10.38
2023-03-29T21:03:10.124Z,10.37
2023-03-29T21:05:12.090Z,10.35
2023-03-29T21:07:14.233Z,10.35
2023-03-29T21:09:16.589Z,10.33
2023-03-29T21:11:18.874Z,10.33
2023-03-29T21:13:20.451Z,10.33
2023-03-29T21:15:22.048Z,10.32
2023-03-29T21:17:23.772Z,10.32
2023-03-29T21:19:27.404Z,10.32
2023-03-29T21:21:29.190Z,10.32
2023-03-29T21:23:30.704Z,10.31
2023-03-29T21:25:32.283Z,10.29
2023-03-29T21:27:34.077Z,10.29
2023-03-29T21:29:35.655Z,10.29
2023-03-29T21:31:37.614Z,10.29
2023-03-29T21:33:39.268Z,10.27
2023-03-29T21:35:42.184Z,10.28
2023-03-29T21:37:43.708Z,10.27
2023-03-29T21:39:45.300Z,10.27
2023-03-29T21:41:46.796Z,10.25
2023-03-29T21:43:48.715Z,10.24
2023-03-29T21:45:52.938Z,10.22
2023-03-29T21:47:54.529Z,10.22
2023-03-29T21:49:56.120Z,10.22
2023-03-29T21:51:59.041Z,10.21
2023-03-29T21:54:00.696Z,10.19
2023-03-29T21:56:02.669Z,10.19
2023-03-29T21:58:04.924Z,10.17
2023-03-29T22:00:09.864Z,10.16
2023-03-29T22:02:17.366Z,10.16
2023-03-29T22:04:29.527Z,10.14
2023-03-29T22:06:35.004Z,10.14
2023-03-29T22:08:38.100Z,10.11
2023-03-29T22:10:40.223Z,10.09
2023-03-29T22:12:41.892Z,10.06
2023-03-29T22:14:43.498Z,10.06
2023-03-29T22:16:47.272Z,10.05
2023-03-29T22:18:50.428Z,10.02
2023-03-29T22:20:52.000Z,10.01
2023-03-29T22:22:53.586Z,9.99
2023-03-29T22:24:56.497Z,9.99
2023-03-29T22:27:02.159Z,9.96
2023-03-29T22:29:03.819Z,9.95
2023-03-29T22:31:08.146Z,9.93
2023-03-29T22:33:09.774Z,9.89
2023-03-29T22:35:11.519Z,9.91
2023-03-29T22:37:15.450Z,9.89
2023-03-29T22:39:20.757Z,9.87
2023-03-29T22:41:26.910Z,9.86
2023-03-29T22:43:28.537Z,9.85
2023-03-29T22:45:30.281Z,9.83
2023-03-29T22:47:35.171Z,9.83
2023-03-29T22:49:40.089Z,9.79
2023-03-29T22:51:41.729Z,9.79
2023-03-29T22:53:43.504Z,9.78
2023-03-29T22:55:45.074Z,9.77
2023-03-29T22:57:47.892Z,9.75
2023-03-29T22:59:49.437Z,9.74
2023-03-29T23:01:51.235Z,9.73
2023-03-29T23:03:53.114Z,9.74
2023-03-29T23:05:56.822Z,9.73
2023-03-29T23:07:58.599Z,9.73
2023-03-29T23:10:00.198Z,9.74
2023-03-29T23:12:01.824Z,9.72
2023-03-29T23:14:04.833Z,9.72
2023-03-29T23:16:07.283Z,9.71
2023-03-29T23:18:09.859Z,9.72
2023-03-29T23:20:12.045Z,9.71
2023-03-29T23:22:13.643Z,9.71
2023-03-29T23:24:16.970Z,9.70
2023-03-29T23:26:20.432Z,9.69
2023-03-29T23:28:24.645Z,9.69
2023-03-29T23:30:27.972Z,9.67
2023-03-29T23:32:29.619Z,9.66
2023-03-29T23:34:31.264Z,9.67
2023-03-29T23:36:32.864Z,9.67
2023-03-29T23:38:36.120Z,9.67
2023-03-29T23:40:37.827Z,9.66
2023-03-29T23:42:39.901Z,9.64
2023-03-29T23:44:41.475Z,9.63
2023-03-29T23:46:44.366Z,9.62
2023-03-29T23:48:46.895Z,9.63
2023-03-29T23:50:48.659Z,9.62
2023-03-29T23:52:50.327Z,9.61
2023-03-29T23:54:52.199Z,9.61
2023-03-29T23:56:53.824Z,9.59
2023-03-29T23:58:55.458Z,9.58
